Decoded Metar for SBGO (GOIANIA in BRAZIL) (IATA:GYN) | Meteo·Mobile Aviation Weather
aviador You're here:

SBGO Decoded Metar

GOIANIA in BRAZIL
Report Time2019-04-19 22:00:00
UTC Time2019-04-19 22:15:40
Flight Rules vfr VFR
Wind130° at 06 kt
W.Decomp.*RWY 14: 5.9 kt HW 0.8 kt RCW
Visibility9999 m
Phenomena:N/A
Clouds:N/A
Expected CloudBase > 2,400 ft AGL from Temp-Dew spread
CeilingNone
Temp27°C (ISA +17)
Dew Point21°C (70% RH)
Heat Index28.9°C
QNH1015 hPa
Density Alt4,659 ft
Elevation2,451 ft
Report Wrong Elevation
Raw Report
SBGO 192200Z 13006KT CAVOK 27/21 Q1015=

Extra information for SBGO:More info

Metar Taf Metar & Taf Last 4 Metars F.Rules Stats Wind Profile Meteogram Temp Stats Airport Information Weather charts Add Link Nearby VenuesMetar ALERT Operation Metar Decoded Social comments